sensor_id;sensor_type;location;lat;lon;timestamp;P1;durP1;ratioP1;P2;durP2;ratioP2
21621;SDS011;10973;46.706;12.340;2022-07-10T00:01:18;1.40;;;1.40;;
21621;SDS011;10973;46.706;12.340;2022-07-10T00:03:46;1.33;;;1.33;;
21621;SDS011;10973;46.706;12.340;2022-07-10T00:06:13;1.77;;;1.20;;
21621;SDS011;10973;46.706;12.340;2022-07-10T00:08:40;1.97;;;1.40;;
21621;SDS011;10973;46.706;12.340;2022-07-10T00:11:08;1.30;;;1.30;;
21621;SDS011;10973;46.706;12.340;2022-07-10T00:13:37;1.10;;;1.10;;
21621;SDS011;10973;46.706;12.340;2022-07-10T00:16:05;1.73;;;1.30;;
21621;SDS011;10973;46.706;12.340;2022-07-10T00:18:32;1.40;;;1.30;;
21621;SDS011;10973;46.706;12.340;2022-07-10T00:20:59;1.43;;;1.40;;
21621;SDS011;10973;46.706;12.340;2022-07-10T00:23:27;1.20;;;1.20;;
21621;SDS011;10973;46.706;12.340;2022-07-10T00:25:54;1.60;;;1.50;;
21621;SDS011;10973;46.706;12.340;2022-07-10T00:28:21;1.30;;;1.30;;
21621;SDS011;10973;46.706;12.340;2022-07-10T00:30:49;2.10;;;1.30;;
21621;SDS011;10973;46.706;12.340;2022-07-10T00:33:16;1.33;;;1.23;;
21621;SDS011;10973;46.706;12.340;2022-07-10T00:35:43;1.77;;;1.47;;
21621;SDS011;10973;46.706;12.340;2022-07-10T00:38:10;1.50;;;1.40;;
21621;SDS011;10973;46.706;12.340;2022-07-10T00:40:38;1.50;;;1.40;;
21621;SDS011;10973;46.706;12.340;2022-07-10T00:43:07;1.40;;;1.40;;
21621;SDS011;10973;46.706;12.340;2022-07-10T00:45:35;1.53;;;1.43;;
21621;SDS011;10973;46.706;12.340;2022-07-10T00:48:03;1.43;;;1.43;;
21621;SDS011;10973;46.706;12.340;2022-07-10T00:50:31;1.40;;;1.40;;
21621;SDS011;10973;46.706;12.340;2022-07-10T00:52:59;1.60;;;1.50;;
21621;SDS011;10973;46.706;12.340;2022-07-10T00:55:28;2.93;;;1.70;;
21621;SDS011;10973;46.706;12.340;2022-07-10T00:57:57;1.83;;;1.73;;
21621;SDS011;10973;46.706;12.340;2022-07-10T01:00:25;2.00;;;1.50;;
21621;SDS011;10973;46.706;12.340;2022-07-10T01:02:53;1.70;;;1.60;;
21621;SDS011;10973;46.706;12.340;2022-07-10T01:05:23;1.80;;;1.70;;
21621;SDS011;10973;46.706;12.340;2022-07-10T01:07:50;1.43;;;1.43;;
21621;SDS011;10973;46.706;12.340;2022-07-10T01:10:18;1.50;;;1.40;;
21621;SDS011;10973;46.706;12.340;2022-07-10T01:12:45;1.40;;;1.30;;
21621;SDS011;10973;46.706;12.340;2022-07-10T01:15:14;1.40;;;1.40;;
21621;SDS011;10973;46.706;12.340;2022-07-10T01:17:42;1.33;;;1.33;;
21621;SDS011;10973;46.706;12.340;2022-07-10T01:20:09;2.07;;;1.40;;
21621;SDS011;10973;46.706;12.340;2022-07-10T01:22:37;1.20;;;1.20;;
21621;SDS011;10973;46.706;12.340;2022-07-10T01:25:06;1.90;;;1.80;;
21621;SDS011;10973;46.706;12.340;2022-07-10T01:27:34;1.30;;;1.27;;
21621;SDS011;10973;46.706;12.340;2022-07-10T01:30:02;1.70;;;1.50;;
21621;SDS011;10973;46.706;12.340;2022-07-10T01:32:36;1.63;;;1.50;;
21621;SDS011;10973;46.706;12.340;2022-07-10T01:35:05;1.70;;;1.60;;
21621;SDS011;10973;46.706;12.340;2022-07-10T01:37:34;1.60;;;1.50;;
21621;SDS011;10973;46.706;12.340;2022-07-10T01:40:01;1.97;;;1.50;;
21621;SDS011;10973;46.706;12.340;2022-07-10T01:42:29;1.70;;;1.60;;
21621;SDS011;10973;46.706;12.340;2022-07-10T01:44:57;1.60;;;1.50;;
21621;SDS011;10973;46.706;12.340;2022-07-10T01:47:31;1.60;;;1.50;;
21621;SDS011;10973;46.706;12.340;2022-07-10T01:49:58;1.60;;;1.30;;
21621;SDS011;10973;46.706;12.340;2022-07-10T01:52:25;1.53;;;1.53;;
21621;SDS011;10973;46.706;12.340;2022-07-10T01:54:53;1.57;;;1.57;;
21621;SDS011;10973;46.706;12.340;2022-07-10T01:57:20;1.30;;;1.30;;
21621;SDS011;10973;46.706;12.340;2022-07-10T01:59:47;1.90;;;1.63;;
21621;SDS011;10973;46.706;12.340;2022-07-10T02:02:14;1.50;;;1.50;;
21621;SDS011;10973;46.706;12.340;2022-07-10T02:04:42;1.70;;;1.20;;
21621;SDS011;10973;46.706;12.340;2022-07-10T02:07:10;1.57;;;1.50;;
21621;SDS011;10973;46.706;12.340;2022-07-10T02:09:43;1.30;;;1.30;;
21621;SDS011;10973;46.706;12.340;2022-07-10T02:12:12;1.30;;;1.30;;
21621;SDS011;10973;46.706;12.340;2022-07-10T02:14:41;2.20;;;1.40;;
21621;SDS011;10973;46.706;12.340;2022-07-10T02:17:08;1.47;;;1.23;;
21621;SDS011;10973;46.706;12.340;2022-07-10T02:19:36;1.60;;;1.50;;
21621;SDS011;10973;46.706;12.340;2022-07-10T02:22:03;1.50;;;1.30;;
21621;SDS011;10973;46.706;12.340;2022-07-10T02:24:31;1.33;;;1.33;;
21621;SDS011;10973;46.706;12.340;2022-07-10T02:26:58;3.50;;;1.70;;
21621;SDS011;10973;46.706;12.340;2022-07-10T02:29:25;1.30;;;1.20;;
21621;SDS011;10973;46.706;12.340;2022-07-10T02:31:52;1.60;;;1.50;;
21621;SDS011;10973;46.706;12.340;2022-07-10T02:34:20;1.50;;;1.43;;
21621;SDS011;10973;46.706;12.340;2022-07-10T02:36:47;1.37;;;1.30;;
21621;SDS011;10973;46.706;12.340;2022-07-10T02:39:15;1.97;;;1.80;;
21621;SDS011;10973;46.706;12.340;2022-07-10T02:41:42;2.77;;;1.50;;
21621;SDS011;10973;46.706;12.340;2022-07-10T02:44:09;1.30;;;1.30;;
21621;SDS011;10973;46.706;12.340;2022-07-10T02:46:36;1.30;;;1.30;;
21621;SDS011;10973;46.706;12.340;2022-07-10T02:49:04;1.50;;;1.40;;
21621;SDS011;10973;46.706;12.340;2022-07-10T02:51:31;2.60;;;1.40;;
21621;SDS011;10973;46.706;12.340;2022-07-10T02:53:58;1.10;;;1.10;;
21621;SDS011;10973;46.706;12.340;2022-07-10T02:56:25;1.63;;;1.30;;
21621;SDS011;10973;46.706;12.340;2022-07-10T02:58:53;2.17;;;1.73;;
21621;SDS011;10973;46.706;12.340;2022-07-10T03:01:20;2.33;;;1.40;;
21621;SDS011;10973;46.706;12.340;2022-07-10T03:03:47;1.93;;;1.30;;
21621;SDS011;10973;46.706;12.340;2022-07-10T03:06:15;1.30;;;1.30;;
21621;SDS011;10973;46.706;12.340;2022-07-10T03:08:42;1.30;;;1.30;;
21621;SDS011;10973;46.706;12.340;2022-07-10T03:11:09;1.63;;;1.53;;
21621;SDS011;10973;46.706;12.340;2022-07-10T03:13:36;1.60;;;1.50;;
21621;SDS011;10973;46.706;12.340;2022-07-10T03:16:04;1.63;;;1.43;;
21621;SDS011;10973;46.706;12.340;2022-07-10T03:18:32;1.60;;;1.30;;
21621;SDS011;10973;46.706;12.340;2022-07-10T03:21:00;1.90;;;1.40;;
21621;SDS011;10973;46.706;12.340;2022-07-10T03:23:27;2.90;;;1.60;;
21621;SDS011;10973;46.706;12.340;2022-07-10T03:25:55;1.30;;;1.30;;
21621;SDS011;10973;46.706;12.340;2022-07-10T03:28:23;1.40;;;1.40;;
21621;SDS011;10973;46.706;12.340;2022-07-10T03:30:50;1.30;;;1.30;;
21621;SDS011;10973;46.706;12.340;2022-07-10T03:33:18;3.80;;;1.30;;
21621;SDS011;10973;46.706;12.340;2022-07-10T03:35:45;1.50;;;1.27;;
21621;SDS011;10973;46.706;12.340;2022-07-10T03:38:13;1.93;;;1.43;;
21621;SDS011;10973;46.706;12.340;2022-07-10T03:40:40;1.30;;;1.30;;
21621;SDS011;10973;46.706;12.340;2022-07-10T03:43:08;1.30;;;1.30;;
21621;SDS011;10973;46.706;12.340;2022-07-10T03:45:36;1.67;;;1.50;;
21621;SDS011;10973;46.706;12.340;2022-07-10T03:48:03;1.47;;;1.47;;
21621;SDS011;10973;46.706;12.340;2022-07-10T03:50:31;1.50;;;1.50;;
21621;SDS011;10973;46.706;12.340;2022-07-10T03:52:59;1.30;;;1.30;;
21621;SDS011;10973;46.706;12.340;2022-07-10T03:55:27;2.30;;;2.20;;
21621;SDS011;10973;46.706;12.340;2022-07-10T03:57:54;2.10;;;2.00;;
21621;SDS011;10973;46.706;12.340;2022-07-10T04:00:24;2.43;;;2.23;;
21621;SDS011;10973;46.706;12.340;2022-07-10T04:03:02;2.60;;;2.40;;
21621;SDS011;10973;46.706;12.340;2022-07-10T04:05:32;2.50;;;2.30;;
21621;SDS011;10973;46.706;12.340;2022-07-10T04:08:00;2.20;;;2.10;;
21621;SDS011;10973;46.706;12.340;2022-07-10T04:10:29;1.80;;;1.70;;
21621;SDS011;10973;46.706;12.340;2022-07-10T04:12:58;1.93;;;1.83;;
21621;SDS011;10973;46.706;12.340;2022-07-10T04:15:25;2.20;;;1.50;;
21621;SDS011;10973;46.706;12.340;2022-07-10T04:17:53;1.60;;;1.50;;
21621;SDS011;10973;46.706;12.340;2022-07-10T04:20:24;1.80;;;1.70;;
21621;SDS011;10973;46.706;12.340;2022-07-10T04:22:51;1.80;;;1.70;;
21621;SDS011;10973;46.706;12.340;2022-07-10T04:25:19;3.10;;;1.80;;
21621;SDS011;10973;46.706;12.340;2022-07-10T04:27:47;2.20;;;2.10;;
21621;SDS011;10973;46.706;12.340;2022-07-10T04:30:14;1.93;;;1.83;;
21621;SDS011;10973;46.706;12.340;2022-07-10T04:32:42;1.80;;;1.70;;
21621;SDS011;10973;46.706;12.340;2022-07-10T04:35:10;1.80;;;1.70;;
21621;SDS011;10973;46.706;12.340;2022-07-10T04:37:37;1.80;;;1.57;;
21621;SDS011;10973;46.706;12.340;2022-07-10T04:40:05;1.80;;;1.43;;
21621;SDS011;10973;46.706;12.340;2022-07-10T04:42:35;2.47;;;2.00;;
21621;SDS011;10973;46.706;12.340;2022-07-10T04:45:03;2.73;;;2.50;;
21621;SDS011;10973;46.706;12.340;2022-07-10T04:47:31;4.07;;;2.30;;
21621;SDS011;10973;46.706;12.340;2022-07-10T04:49:58;2.80;;;2.60;;
21621;SDS011;10973;46.706;12.340;2022-07-10T04:52:26;2.30;;;2.10;;
21621;SDS011;10973;46.706;12.340;2022-07-10T04:54:53;2.00;;;1.90;;
21621;SDS011;10973;46.706;12.340;2022-07-10T04:57:21;2.37;;;2.27;;
21621;SDS011;10973;46.706;12.340;2022-07-10T04:59:48;2.77;;;2.57;;
21621;SDS011;10973;46.706;12.340;2022-07-10T05:02:16;1.97;;;1.87;;
21621;SDS011;10973;46.706;12.340;2022-07-10T05:04:44;1.90;;;1.80;;
21621;SDS011;10973;46.706;12.340;2022-07-10T05:07:11;1.87;;;1.77;;
21621;SDS011;10973;46.706;12.340;2022-07-10T05:09:39;2.20;;;2.10;;
21621;SDS011;10973;46.706;12.340;2022-07-10T05:12:07;1.80;;;1.70;;
21621;SDS011;10973;46.706;12.340;2022-07-10T05:14:34;2.03;;;1.93;;
21621;SDS011;10973;46.706;12.340;2022-07-10T05:17:02;2.27;;;2.17;;
21621;SDS011;10973;46.706;12.340;2022-07-10T05:19:29;2.40;;;2.10;;
21621;SDS011;10973;46.706;12.340;2022-07-10T05:21:56;3.23;;;2.30;;
21621;SDS011;10973;46.706;12.340;2022-07-10T05:24:24;3.30;;;2.43;;
21621;SDS011;10973;46.706;12.340;2022-07-10T05:26:51;2.73;;;2.03;;
21621;SDS011;10973;46.706;12.340;2022-07-10T05:29:18;2.80;;;2.60;;
21621;SDS011;10973;46.706;12.340;2022-07-10T05:31:46;3.33;;;2.60;;
21621;SDS011;10973;46.706;12.340;2022-07-10T05:34:13;2.27;;;2.17;;
21621;SDS011;10973;46.706;12.340;2022-07-10T05:36:40;2.80;;;2.60;;
21621;SDS011;10973;46.706;12.340;2022-07-10T05:39:07;3.33;;;2.30;;
21621;SDS011;10973;46.706;12.340;2022-07-10T05:41:35;4.97;;;2.63;;
21621;SDS011;10973;46.706;12.340;2022-07-10T05:44:02;3.50;;;3.00;;
21621;SDS011;10973;46.706;12.340;2022-07-10T05:46:30;4.03;;;2.90;;
21621;SDS011;10973;46.706;12.340;2022-07-10T05:48:57;3.17;;;2.60;;
21621;SDS011;10973;46.706;12.340;2022-07-10T05:51:25;3.13;;;2.70;;
21621;SDS011;10973;46.706;12.340;2022-07-10T05:53:59;2.10;;;2.00;;
21621;SDS011;10973;46.706;12.340;2022-07-10T05:56:26;1.70;;;1.60;;
21621;SDS011;10973;46.706;12.340;2022-07-10T05:58:54;1.40;;;1.40;;
21621;SDS011;10973;46.706;12.340;2022-07-10T06:01:22;1.70;;;1.60;;
21621;SDS011;10973;46.706;12.340;2022-07-10T06:03:50;2.00;;;1.80;;
21621;SDS011;10973;46.706;12.340;2022-07-10T06:06:18;1.83;;;1.73;;
21621;SDS011;10973;46.706;12.340;2022-07-10T06:08:45;1.90;;;1.70;;
21621;SDS011;10973;46.706;12.340;2022-07-10T06:11:12;1.40;;;1.40;;
21621;SDS011;10973;46.706;12.340;2022-07-10T06:13:40;2.30;;;1.60;;
21621;SDS011;10973;46.706;12.340;2022-07-10T06:16:07;1.50;;;1.50;;
21621;SDS011;10973;46.706;12.340;2022-07-10T06:18:34;1.80;;;1.70;;
21621;SDS011;10973;46.706;12.340;2022-07-10T06:21:02;1.57;;;1.47;;
21621;SDS011;10973;46.706;12.340;2022-07-10T06:23:30;2.13;;;1.90;;
21621;SDS011;10973;46.706;12.340;2022-07-10T06:25:57;1.60;;;1.60;;
21621;SDS011;10973;46.706;12.340;2022-07-10T06:28:25;1.83;;;1.73;;
21621;SDS011;10973;46.706;12.340;2022-07-10T06:30:52;1.30;;;1.30;;
21621;SDS011;10973;46.706;12.340;2022-07-10T06:33:26;1.40;;;1.40;;
21621;SDS011;10973;46.706;12.340;2022-07-10T06:35:53;1.50;;;1.50;;
21621;SDS011;10973;46.706;12.340;2022-07-10T06:38:20;1.60;;;1.50;;
21621;SDS011;10973;46.706;12.340;2022-07-10T06:40:47;1.43;;;1.23;;
21621;SDS011;10973;46.706;12.340;2022-07-10T06:43:16;1.63;;;1.53;;
21621;SDS011;10973;46.706;12.340;2022-07-10T06:45:43;1.63;;;1.53;;
21621;SDS011;10973;46.706;12.340;2022-07-10T06:48:11;1.77;;;1.67;;
21621;SDS011;10973;46.706;12.340;2022-07-10T06:50:39;1.57;;;1.57;;
21621;SDS011;10973;46.706;12.340;2022-07-10T06:53:08;1.50;;;1.43;;
21621;SDS011;10973;46.706;12.340;2022-07-10T06:55:35;1.90;;;1.33;;
21621;SDS011;10973;46.706;12.340;2022-07-10T06:58:04;2.37;;;1.60;;
21621;SDS011;10973;46.706;12.340;2022-07-10T07:00:31;1.80;;;1.70;;
21621;SDS011;10973;46.706;12.340;2022-07-10T07:02:58;1.40;;;1.40;;
21621;SDS011;10973;46.706;12.340;2022-07-10T07:05:26;1.60;;;1.50;;
21621;SDS011;10973;46.706;12.340;2022-07-10T07:07:53;1.10;;;1.10;;
21621;SDS011;10973;46.706;12.340;2022-07-10T07:10:20;1.53;;;1.47;;
21621;SDS011;10973;46.706;12.340;2022-07-10T07:12:48;1.60;;;1.50;;
21621;SDS011;10973;46.706;12.340;2022-07-10T07:15:15;1.97;;;1.40;;
21621;SDS011;10973;46.706;12.340;2022-07-10T07:17:42;1.50;;;1.40;;
21621;SDS011;10973;46.706;12.340;2022-07-10T07:20:10;1.50;;;1.50;;
21621;SDS011;10973;46.706;12.340;2022-07-10T07:22:37;2.27;;;1.50;;
21621;SDS011;10973;46.706;12.340;2022-07-10T07:25:05;1.60;;;1.50;;
21621;SDS011;10973;46.706;12.340;2022-07-10T07:27:34;1.43;;;1.33;;
21621;SDS011;10973;46.706;12.340;2022-07-10T07:30:07;1.70;;;1.60;;
21621;SDS011;10973;46.706;12.340;2022-07-10T07:32:40;1.70;;;1.60;;
21621;SDS011;10973;46.706;12.340;2022-07-10T07:35:09;1.60;;;1.50;;
21621;SDS011;10973;46.706;12.340;2022-07-10T07:37:38;1.80;;;1.70;;
21621;SDS011;10973;46.706;12.340;2022-07-10T07:40:14;1.60;;;1.50;;
21621;SDS011;10973;46.706;12.340;2022-07-10T07:42:48;1.30;;;1.30;;
21621;SDS011;10973;46.706;12.340;2022-07-10T07:45:20;1.40;;;1.40;;
21621;SDS011;10973;46.706;12.340;2022-07-10T07:47:52;1.50;;;1.40;;
21621;SDS011;10973;46.706;12.340;2022-07-10T07:50:23;3.97;;;1.50;;
21621;SDS011;10973;46.706;12.340;2022-07-10T07:52:53;1.50;;;1.40;;
21621;SDS011;10973;46.706;12.340;2022-07-10T07:55:20;1.90;;;1.80;;
21621;SDS011;10973;46.706;12.340;2022-07-10T07:57:50;1.70;;;1.60;;
21621;SDS011;10973;46.706;12.340;2022-07-10T08:00:20;1.50;;;1.50;;
21621;SDS011;10973;46.706;12.340;2022-07-10T08:02:50;1.50;;;1.40;;
21621;SDS011;10973;46.706;12.340;2022-07-10T08:05:19;2.10;;;1.90;;
21621;SDS011;10973;46.706;12.340;2022-07-10T08:07:49;1.90;;;1.80;;
21621;SDS011;10973;46.706;12.340;2022-07-10T08:10:23;1.80;;;1.70;;
21621;SDS011;10973;46.706;12.340;2022-07-10T08:12:53;1.50;;;1.40;;
21621;SDS011;10973;46.706;12.340;2022-07-10T08:15:20;2.30;;;2.20;;
21621;SDS011;10973;46.706;12.340;2022-07-10T08:17:52;1.90;;;1.80;;
21621;SDS011;10973;46.706;12.340;2022-07-10T08:20:22;1.50;;;1.50;;
21621;SDS011;10973;46.706;12.340;2022-07-10T08:22:51;1.50;;;1.50;;
21621;SDS011;10973;46.706;12.340;2022-07-10T08:25:25;1.90;;;1.77;;
21621;SDS011;10973;46.706;12.340;2022-07-10T08:27:59;1.40;;;1.40;;
21621;SDS011;10973;46.706;12.340;2022-07-10T08:30:30;1.47;;;1.47;;
21621;SDS011;10973;46.706;12.340;2022-07-10T08:32:58;1.80;;;1.70;;
21621;SDS011;10973;46.706;12.340;2022-07-10T08:35:26;1.50;;;1.50;;
21621;SDS011;10973;46.706;12.340;2022-07-10T08:37:53;2.27;;;1.60;;
21621;SDS011;10973;46.706;12.340;2022-07-10T08:40:21;1.33;;;1.33;;
21621;SDS011;10973;46.706;12.340;2022-07-10T08:42:49;2.30;;;1.73;;
21621;SDS011;10973;46.706;12.340;2022-07-10T08:45:16;1.63;;;1.53;;
21621;SDS011;10973;46.706;12.340;2022-07-10T08:47:44;1.40;;;1.40;;
21621;SDS011;10973;46.706;12.340;2022-07-10T08:50:23;1.60;;;1.50;;
21621;SDS011;10973;46.706;12.340;2022-07-10T08:53:12;1.87;;;1.63;;
21621;SDS011;10973;46.706;12.340;2022-07-10T08:55:44;1.80;;;1.70;;
21621;SDS011;10973;46.706;12.340;2022-07-10T08:58:12;2.00;;;1.90;;
21621;SDS011;10973;46.706;12.340;2022-07-10T09:00:40;1.70;;;1.60;;
21621;SDS011;10973;46.706;12.340;2022-07-10T09:03:07;1.60;;;1.60;;
21621;SDS011;10973;46.706;12.340;2022-07-10T09:05:35;1.80;;;1.47;;
21621;SDS011;10973;46.706;12.340;2022-07-10T09:08:03;1.90;;;1.80;;
21621;SDS011;10973;46.706;12.340;2022-07-10T09:10:47;1.53;;;1.43;;
21621;SDS011;10973;46.706;12.340;2022-07-10T09:13:14;1.67;;;1.57;;
21621;SDS011;10973;46.706;12.340;2022-07-10T09:15:47;1.43;;;1.43;;
21621;SDS011;10973;46.706;12.340;2022-07-10T09:18:18;1.30;;;1.30;;
21621;SDS011;10973;46.706;12.340;2022-07-10T09:20:46;2.13;;;1.40;;
21621;SDS011;10973;46.706;12.340;2022-07-10T09:25:46;1.40;;;1.40;;
21621;SDS011;10973;46.706;12.340;2022-07-10T09:28:16;1.70;;;1.60;;
21621;SDS011;10973;46.706;12.340;2022-07-10T09:30:45;1.57;;;1.50;;
21621;SDS011;10973;46.706;12.340;2022-07-10T09:35:58;2.07;;;1.67;;
21621;SDS011;10973;46.706;12.340;2022-07-10T09:38:28;1.70;;;1.60;;
21621;SDS011;10973;46.706;12.340;2022-07-10T09:41:16;1.70;;;1.60;;
21621;SDS011;10973;46.706;12.340;2022-07-10T09:43:58;1.67;;;1.57;;
21621;SDS011;10973;46.706;12.340;2022-07-10T09:46:30;1.57;;;1.57;;
21621;SDS011;10973;46.706;12.340;2022-07-10T09:49:03;1.60;;;1.50;;
21621;SDS011;10973;46.706;12.340;2022-07-10T09:51:36;1.53;;;1.43;;
21621;SDS011;10973;46.706;12.340;2022-07-10T09:54:13;1.50;;;1.50;;
21621;SDS011;10973;46.706;12.340;2022-07-10T09:56:42;1.60;;;1.50;;
21621;SDS011;10973;46.706;12.340;2022-07-10T09:59:13;1.93;;;1.40;;
21621;SDS011;10973;46.706;12.340;2022-07-10T10:01:52;3.47;;;2.60;;
21621;SDS011;10973;46.706;12.340;2022-07-10T10:04:21;2.40;;;2.30;;
21621;SDS011;10973;46.706;12.340;2022-07-10T10:06:52;2.53;;;1.70;;
21621;SDS011;10973;46.706;12.340;2022-07-10T10:09:25;1.63;;;1.60;;
21621;SDS011;10973;46.706;12.340;2022-07-10T10:12:02;1.40;;;1.40;;
21621;SDS011;10973;46.706;12.340;2022-07-10T10:14:37;1.80;;;1.70;;
21621;SDS011;10973;46.706;12.340;2022-07-10T10:17:09;1.57;;;1.47;;
21621;SDS011;10973;46.706;12.340;2022-07-10T10:19:42;1.70;;;1.43;;
21621;SDS011;10973;46.706;12.340;2022-07-10T10:22:14;1.90;;;1.77;;
21621;SDS011;10973;46.706;12.340;2022-07-10T10:24:44;1.97;;;1.80;;
21621;SDS011;10973;46.706;12.340;2022-07-10T10:27:13;1.80;;;1.70;;
21621;SDS011;10973;46.706;12.340;2022-07-10T10:29:41;1.60;;;1.60;;
21621;SDS011;10973;46.706;12.340;2022-07-10T10:32:11;1.80;;;1.70;;
21621;SDS011;10973;46.706;12.340;2022-07-10T10:34:40;1.80;;;1.70;;
21621;SDS011;10973;46.706;12.340;2022-07-10T10:39:59;1.70;;;1.60;;
21621;SDS011;10973;46.706;12.340;2022-07-10T10:48:05;1.50;;;1.50;;
21621;SDS011;10973;46.706;12.340;2022-07-10T10:50:54;1.50;;;1.50;;
21621;SDS011;10973;46.706;12.340;2022-07-10T10:56:24;2.40;;;1.60;;
21621;SDS011;10973;46.706;12.340;2022-07-10T10:58:45;1.83;;;1.73;;
21621;SDS011;10973;46.706;12.340;2022-07-10T11:04:34;2.50;;;1.70;;
21621;SDS011;10973;46.706;12.340;2022-07-10T11:06:52;1.60;;;1.60;;
21621;SDS011;10973;46.706;12.340;2022-07-10T11:12:08;1.50;;;1.50;;
21621;SDS011;10973;46.706;12.340;2022-07-10T11:14:38;1.70;;;1.60;;
21621;SDS011;10973;46.706;12.340;2022-07-10T11:17:07;1.53;;;1.50;;
21621;SDS011;10973;46.706;12.340;2022-07-10T11:19:35;1.50;;;1.50;;
21621;SDS011;10973;46.706;12.340;2022-07-10T11:25:31;1.50;;;1.40;;
21621;SDS011;10973;46.706;12.340;2022-07-10T11:28:06;1.60;;;1.60;;
21621;SDS011;10973;46.706;12.340;2022-07-10T11:30:44;1.50;;;1.40;;
21621;SDS011;10973;46.706;12.340;2022-07-10T11:33:21;1.60;;;1.60;;
21621;SDS011;10973;46.706;12.340;2022-07-10T11:35:50;2.30;;;1.90;;
21621;SDS011;10973;46.706;12.340;2022-07-10T11:38:20;1.70;;;1.60;;
21621;SDS011;10973;46.706;12.340;2022-07-10T11:40:49;1.50;;;1.50;;
21621;SDS011;10973;46.706;12.340;2022-07-10T11:43:18;1.80;;;1.70;;
21621;SDS011;10973;46.706;12.340;2022-07-10T11:45:45;1.73;;;1.67;;
21621;SDS011;10973;46.706;12.340;2022-07-10T11:48:17;1.57;;;1.57;;
21621;SDS011;10973;46.706;12.340;2022-07-10T11:50:48;1.53;;;1.53;;
21621;SDS011;10973;46.706;12.340;2022-07-10T11:53:24;1.80;;;1.70;;
21621;SDS011;10973;46.706;12.340;2022-07-10T11:55:53;1.97;;;1.70;;
21621;SDS011;10973;46.706;12.340;2022-07-10T11:58:21;1.80;;;1.70;;
21621;SDS011;10973;46.706;12.340;2022-07-10T12:03:27;1.70;;;1.70;;
21621;SDS011;10973;46.706;12.340;2022-07-10T12:06:00;1.60;;;1.60;;
21621;SDS011;10973;46.706;12.340;2022-07-10T12:08:43;1.53;;;1.50;;
21621;SDS011;10973;46.706;12.340;2022-07-10T12:11:12;1.80;;;1.70;;
21621;SDS011;10973;46.706;12.340;2022-07-10T12:13:41;1.70;;;1.70;;
21621;SDS011;10973;46.706;12.340;2022-07-10T12:16:10;1.67;;;1.57;;
21621;SDS011;10973;46.706;12.340;2022-07-10T12:18:38;1.70;;;1.60;;
21621;SDS011;10973;46.706;12.340;2022-07-10T12:21:11;1.60;;;1.60;;
21621;SDS011;10973;46.706;12.340;2022-07-10T12:23:39;1.83;;;1.77;;
21621;SDS011;10973;46.706;12.340;2022-07-10T12:26:10;1.73;;;1.50;;
21621;SDS011;10973;46.706;12.340;2022-07-10T12:31:23;2.13;;;1.83;;
21621;SDS011;10973;46.706;12.340;2022-07-10T12:33:53;1.90;;;1.80;;
21621;SDS011;10973;46.706;12.340;2022-07-10T12:36:24;2.20;;;2.00;;
21621;SDS011;10973;46.706;12.340;2022-07-10T12:38:53;1.85;;;1.70;;
21621;SDS011;10973;46.706;12.340;2022-07-10T12:41:23;1.65;;;1.65;;
21621;SDS011;10973;46.706;12.340;2022-07-10T12:43:52;1.60;;;1.50;;
21621;SDS011;10973;46.706;12.340;2022-07-10T12:46:21;1.63;;;1.50;;
21621;SDS011;10973;46.706;12.340;2022-07-10T12:49:08;4.75;;;2.00;;
21621;SDS011;10973;46.706;12.340;2022-07-10T12:51:44;1.70;;;1.60;;
21621;SDS011;10973;46.706;12.340;2022-07-10T12:54:34;1.83;;;1.73;;
21621;SDS011;10973;46.706;12.340;2022-07-10T12:57:05;1.87;;;1.87;;
21621;SDS011;10973;46.706;12.340;2022-07-10T12:59:34;2.57;;;2.37;;
21621;SDS011;10973;46.706;12.340;2022-07-10T13:02:19;2.55;;;1.83;;
21621;SDS011;10973;46.706;12.340;2022-07-10T13:04:51;2.20;;;2.10;;
21621;SDS011;10973;46.706;12.340;2022-07-10T13:07:33;1.90;;;1.80;;
21621;SDS011;10973;46.706;12.340;2022-07-10T13:10:03;1.80;;;1.70;;
21621;SDS011;10973;46.706;12.340;2022-07-10T13:12:33;1.80;;;1.70;;
21621;SDS011;10973;46.706;12.340;2022-07-10T13:15:02;2.00;;;1.67;;
21621;SDS011;10973;46.706;12.340;2022-07-10T13:17:31;1.98;;;1.90;;
21621;SDS011;10973;46.706;12.340;2022-07-10T13:19:58;2.13;;;2.03;;
21621;SDS011;10973;46.706;12.340;2022-07-10T13:22:26;1.90;;;1.80;;
21621;SDS011;10973;46.706;12.340;2022-07-10T13:24:53;1.90;;;1.80;;
21621;SDS011;10973;46.706;12.340;2022-07-10T13:27:20;2.03;;;1.80;;
21621;SDS011;10973;46.706;12.340;2022-07-10T13:29:48;2.65;;;1.83;;
21621;SDS011;10973;46.706;12.340;2022-07-10T13:32:15;1.63;;;1.52;;
21621;SDS011;10973;46.706;12.340;2022-07-10T13:34:42;2.00;;;1.90;;
21621;SDS011;10973;46.706;12.340;2022-07-10T13:37:09;1.70;;;1.70;;
21621;SDS011;10973;46.706;12.340;2022-07-10T13:39:37;1.67;;;1.67;;
21621;SDS011;10973;46.706;12.340;2022-07-10T13:42:04;1.52;;;1.52;;
21621;SDS011;10973;46.706;12.340;2022-07-10T13:44:31;1.77;;;1.67;;
21621;SDS011;10973;46.706;12.340;2022-07-10T13:46:59;1.52;;;1.52;;
21621;SDS011;10973;46.706;12.340;2022-07-10T13:49:26;1.77;;;1.75;;
21621;SDS011;10973;46.706;12.340;2022-07-10T13:51:54;1.70;;;1.70;;
21621;SDS011;10973;46.706;12.340;2022-07-10T13:54:22;1.80;;;1.80;;
21621;SDS011;10973;46.706;12.340;2022-07-10T13:56:49;1.60;;;1.50;;
21621;SDS011;10973;46.706;12.340;2022-07-10T13:59:16;1.77;;;1.67;;
21621;SDS011;10973;46.706;12.340;2022-07-10T14:01:44;2.00;;;1.90;;
21621;SDS011;10973;46.706;12.340;2022-07-10T14:04:11;2.13;;;2.03;;
21621;SDS011;10973;46.706;12.340;2022-07-10T14:06:39;1.80;;;1.70;;
21621;SDS011;10973;46.706;12.340;2022-07-10T14:09:06;1.70;;;1.60;;
21621;SDS011;10973;46.706;12.340;2022-07-10T14:11:33;3.10;;;1.60;;
21621;SDS011;10973;46.706;12.340;2022-07-10T14:14:01;2.00;;;1.90;;
21621;SDS011;10973;46.706;12.340;2022-07-10T14:16:28;1.80;;;1.80;;
21621;SDS011;10973;46.706;12.340;2022-07-10T14:18:56;2.13;;;1.93;;
21621;SDS011;10973;46.706;12.340;2022-07-10T14:21:23;1.92;;;1.90;;
21621;SDS011;10973;46.706;12.340;2022-07-10T14:23:51;1.70;;;1.70;;
21621;SDS011;10973;46.706;12.340;2022-07-10T14:26:18;1.65;;;1.65;;
21621;SDS011;10973;46.706;12.340;2022-07-10T14:28:45;1.80;;;1.80;;
21621;SDS011;10973;46.706;12.340;2022-07-10T14:31:12;1.90;;;1.90;;
21621;SDS011;10973;46.706;12.340;2022-07-10T14:33:40;2.50;;;1.67;;
21621;SDS011;10973;46.706;12.340;2022-07-10T14:36:07;1.60;;;1.60;;
21621;SDS011;10973;46.706;12.340;2022-07-10T14:38:35;1.85;;;1.80;;
21621;SDS011;10973;46.706;12.340;2022-07-10T14:41:02;2.10;;;2.00;;
21621;SDS011;10973;46.706;12.340;2022-07-10T14:43:29;1.90;;;1.80;;
21621;SDS011;10973;46.706;12.340;2022-07-10T14:45:56;1.60;;;1.57;;
21621;SDS011;10973;46.706;12.340;2022-07-10T14:48:29;1.92;;;1.83;;
21621;SDS011;10973;46.706;12.340;2022-07-10T14:50:57;1.77;;;1.67;;
21621;SDS011;10973;46.706;12.340;2022-07-10T14:53:25;1.50;;;1.50;;
21621;SDS011;10973;46.706;12.340;2022-07-10T14:55:52;1.87;;;1.77;;
21621;SDS011;10973;46.706;12.340;2022-07-10T14:58:19;1.70;;;1.70;;
21621;SDS011;10973;46.706;12.340;2022-07-10T15:00:47;2.28;;;2.05;;
21621;SDS011;10973;46.706;12.340;2022-07-10T15:03:14;1.90;;;1.80;;
21621;SDS011;10973;46.706;12.340;2022-07-10T15:05:41;2.23;;;2.13;;
21621;SDS011;10973;46.706;12.340;2022-07-10T15:08:09;1.70;;;1.70;;
21621;SDS011;10973;46.706;12.340;2022-07-10T15:10:40;1.73;;;1.70;;
21621;SDS011;10973;46.706;12.340;2022-07-10T15:13:08;2.33;;;1.75;;
21621;SDS011;10973;46.706;12.340;2022-07-10T15:15:35;1.97;;;1.93;;